createdAt,value
2023-05-21T00:00:18.546Z,23.64
2023-05-21T00:01:18.536Z,23.62
2023-05-21T00:02:18.708Z,23.64
2023-05-21T00:03:18.652Z,23.62
2023-05-21T00:04:18.520Z,23.64
2023-05-21T00:05:18.571Z,23.64
2023-05-21T00:06:18.519Z,23.65
2023-05-21T00:07:18.491Z,23.65
2023-05-21T00:08:18.492Z,23.64
2023-05-21T00:09:18.494Z,23.64
2023-05-21T00:10:18.677Z,23.60
2023-05-21T00:11:18.456Z,23.64
2023-05-21T00:12:18.477Z,23.62
2023-05-21T00:13:18.472Z,23.64
2023-05-21T00:14:19.180Z,23.62
2023-05-21T00:15:18.409Z,23.62
2023-05-21T00:16:18.456Z,23.62
2023-05-21T00:17:18.444Z,23.64
2023-05-21T00:18:18.450Z,23.64
2023-05-21T00:19:18.455Z,23.65
2023-05-21T00:20:18.418Z,23.64
2023-05-21T00:21:18.436Z,23.64
2023-05-21T00:22:18.384Z,23.61
2023-05-21T00:23:18.413Z,23.62
2023-05-21T00:24:19.168Z,23.61
2023-05-21T00:25:18.682Z,23.61
2023-05-21T00:26:18.360Z,23.61
2023-05-21T00:27:18.347Z,23.60
2023-05-21T00:28:18.380Z,23.64
2023-05-21T00:29:18.342Z,23.60
2023-05-21T00:30:18.710Z,23.61
2023-05-21T00:31:18.374Z,23.62
2023-05-21T00:32:18.314Z,23.60
2023-05-21T00:33:18.333Z,23.62
2023-05-21T00:34:18.291Z,23.61
2023-05-21T00:35:18.669Z,23.62
2023-05-21T00:36:18.297Z,23.60
2023-05-21T00:37:18.304Z,23.61
2023-05-21T00:38:18.290Z,23.61
2023-05-21T00:39:18.270Z,23.62
2023-05-21T00:40:18.307Z,23.61
2023-05-21T00:41:18.268Z,23.60
2023-05-21T00:42:18.261Z,23.58
2023-05-21T00:43:18.238Z,23.60
2023-05-21T00:44:18.222Z,23.60
2023-05-21T00:45:18.234Z,23.60
2023-05-21T00:46:18.278Z,23.62
2023-05-21T00:47:18.215Z,23.60
2023-05-21T00:48:18.209Z,23.61
2023-05-21T00:49:18.236Z,23.60
2023-05-21T00:50:18.226Z,23.58
2023-05-21T00:51:18.205Z,23.60
2023-05-21T00:52:18.154Z,23.61
2023-05-21T00:53:18.191Z,23.60
2023-05-21T00:54:18.145Z,23.60
2023-05-21T00:55:18.169Z,23.60
2023-05-21T00:56:18.177Z,23.60
2023-05-21T00:57:18.180Z,23.60
2023-05-21T00:58:18.162Z,23.58
2023-05-21T00:59:18.124Z,23.57
2023-05-21T01:00:18.160Z,23.58
2023-05-21T01:01:18.198Z,23.57
2023-05-21T01:02:18.148Z,23.58
2023-05-21T01:03:18.236Z,23.57
2023-05-21T01:04:18.079Z,23.57
2023-05-21T01:05:18.110Z,23.57
2023-05-21T01:06:18.092Z,23.57
2023-05-21T01:07:18.071Z,23.58
2023-05-21T01:08:18.081Z,23.58
2023-05-21T01:09:19.062Z,23.57
2023-05-21T01:10:18.061Z,23.60
2023-05-21T01:11:18.061Z,23.58
2023-05-21T01:12:18.036Z,23.56
2023-05-21T01:13:18.085Z,23.58
2023-05-21T01:14:18.031Z,23.58
2023-05-21T01:15:18.020Z,23.56
2023-05-21T01:16:18.113Z,23.57
2023-05-21T01:17:18.045Z,23.56
2023-05-21T01:18:18.046Z,23.56
2023-05-21T01:19:18.153Z,23.57
2023-05-21T01:20:18.038Z,23.57
2023-05-21T01:21:17.998Z,23.57
2023-05-21T01:22:17.970Z,23.57
2023-05-21T01:23:17.984Z,23.57
2023-05-21T01:24:17.943Z,23.56
2023-05-21T01:25:18.203Z,23.54
2023-05-21T01:26:17.976Z,23.54
2023-05-21T01:27:18.033Z,23.57
2023-05-21T01:28:18.056Z,23.56
2023-05-21T01:29:18.142Z,23.54
2023-05-21T01:30:18.114Z,23.53
2023-05-21T01:31:18.054Z,23.56
2023-05-21T01:32:18.111Z,23.54
2023-05-21T01:33:18.150Z,23.54
2023-05-21T01:34:18.112Z,23.57
2023-05-21T01:35:18.110Z,23.53
2023-05-21T01:36:18.174Z,23.54
2023-05-21T01:37:18.179Z,23.56
2023-05-21T01:38:18.140Z,23.56
2023-05-21T01:39:18.169Z,23.53
2023-05-21T01:40:18.160Z,23.56
2023-05-21T01:41:18.209Z,23.53
2023-05-21T01:42:18.288Z,23.54
2023-05-21T01:43:18.394Z,23.53
2023-05-21T01:44:18.368Z,23.54
2023-05-21T01:45:18.415Z,23.54
2023-05-21T01:46:18.369Z,23.53
2023-05-21T01:47:18.350Z,23.54
2023-05-21T01:48:18.329Z,23.54
2023-05-21T01:49:18.326Z,23.51
2023-05-21T01:50:19.182Z,23.54
2023-05-21T01:51:18.350Z,23.53
2023-05-21T01:52:18.322Z,23.51
2023-05-21T01:53:18.326Z,23.54
2023-05-21T01:54:18.321Z,23.51
2023-05-21T01:55:19.133Z,23.51
2023-05-21T01:56:18.285Z,23.53
2023-05-21T01:57:18.292Z,23.51
2023-05-21T01:58:18.269Z,23.51
2023-05-21T01:59:18.246Z,23.50
2023-05-21T02:00:18.728Z,23.53
2023-05-21T02:01:18.271Z,23.50
2023-05-21T02:02:18.381Z,23.51
2023-05-21T02:03:18.327Z,23.50
2023-05-21T02:04:18.279Z,23.51
2023-05-21T02:05:20.226Z,23.50
2023-05-21T02:06:18.319Z,23.51
2023-05-21T02:07:19.215Z,23.53
2023-05-21T02:08:18.336Z,23.50
2023-05-21T02:09:19.182Z,23.50
2023-05-21T02:10:18.720Z,23.51
2023-05-21T02:11:18.450Z,23.50
2023-05-21T02:12:18.549Z,23.50
2023-05-21T02:13:18.631Z,23.51
2023-05-21T02:14:18.757Z,23.53
2023-05-21T02:15:18.849Z,23.53
2023-05-21T02:16:19.740Z,23.48
2023-05-21T02:17:19.717Z,23.51
2023-05-21T02:18:18.954Z,23.47
2023-05-21T02:19:20.816Z,23.53
2023-05-21T02:20:19.676Z,23.50
2023-05-21T02:21:18.967Z,23.48
2023-05-21T02:22:18.975Z,23.50
2023-05-21T02:23:18.959Z,23.50
2023-05-21T02:24:18.960Z,23.50
2023-05-21T02:25:18.965Z,23.48
2023-05-21T02:26:19.076Z,23.50
2023-05-21T02:27:19.180Z,23.50
2023-05-21T02:28:19.187Z,23.48
2023-05-21T02:29:19.203Z,23.48
2023-05-21T02:30:19.243Z,23.50
2023-05-21T02:31:19.211Z,23.48
2023-05-21T02:32:19.235Z,23.48
2023-05-21T02:33:19.198Z,23.48
2023-05-21T02:34:19.221Z,23.47
2023-05-21T02:35:19.204Z,23.48
2023-05-21T02:36:19.225Z,23.47
2023-05-21T02:37:19.184Z,23.48
2023-05-21T02:38:19.165Z,23.48
2023-05-21T02:39:19.171Z,23.48
2023-05-21T02:40:19.221Z,23.47
2023-05-21T02:41:19.131Z,23.46
2023-05-21T02:42:19.160Z,23.46
2023-05-21T02:43:19.129Z,23.47
2023-05-21T02:44:19.098Z,23.47
2023-05-21T02:45:19.138Z,23.44
2023-05-21T02:46:19.193Z,23.47
2023-05-21T02:47:19.090Z,23.48
2023-05-21T02:48:19.095Z,23.47
2023-05-21T02:49:19.065Z,23.46
2023-05-21T02:50:19.225Z,23.46
2023-05-21T02:51:19.075Z,23.47
2023-05-21T02:52:19.086Z,23.50
2023-05-21T02:53:19.122Z,23.47
2023-05-21T02:54:19.203Z,23.47
2023-05-21T02:55:19.714Z,23.48
2023-05-21T02:56:19.266Z,23.46
2023-05-21T02:57:19.269Z,23.44
2023-05-21T02:58:19.301Z,23.44
2023-05-21T02:59:19.309Z,23.46
2023-05-21T03:00:19.706Z,23.46
2023-05-21T03:01:20.238Z,23.44
2023-05-21T03:02:19.324Z,23.46
2023-05-21T03:03:19.449Z,23.46
2023-05-21T03:04:19.322Z,23.44
2023-05-21T03:05:19.713Z,23.44
2023-05-21T03:06:19.414Z,23.43
2023-05-21T03:07:19.386Z,23.46
2023-05-21T03:08:19.431Z,23.44
2023-05-21T03:09:19.442Z,23.46
2023-05-21T03:10:19.721Z,23.43
2023-05-21T03:11:19.451Z,23.43
2023-05-21T03:12:19.536Z,23.46
2023-05-21T03:13:19.504Z,23.44
2023-05-21T03:14:19.506Z,23.46
2023-05-21T03:15:19.729Z,23.46
2023-05-21T03:16:19.664Z,23.44
2023-05-21T03:17:19.687Z,23.43
2023-05-21T03:18:19.670Z,23.43
2023-05-21T03:19:19.742Z,23.47
2023-05-21T03:20:19.730Z,23.46
2023-05-21T03:21:19.743Z,23.43
2023-05-21T03:22:19.725Z,23.43
2023-05-21T03:23:19.804Z,23.43
2023-05-21T03:24:19.850Z,23.41
2023-05-21T03:25:19.869Z,23.44
2023-05-21T03:26:19.880Z,23.44
2023-05-21T03:27:19.873Z,23.44
2023-05-21T03:28:19.895Z,23.43
2023-05-21T03:29:20.065Z,23.43
2023-05-21T03:30:20.114Z,23.44
2023-05-21T03:31:20.234Z,23.43
2023-05-21T03:32:20.314Z,23.43
2023-05-21T03:33:20.217Z,23.43
2023-05-21T03:34:20.194Z,23.43
2023-05-21T03:35:20.224Z,23.43
2023-05-21T03:36:20.265Z,23.43
2023-05-21T03:37:20.256Z,23.43
2023-05-21T03:38:20.303Z,23.43
2023-05-21T03:39:20.297Z,23.43
2023-05-21T03:40:20.743Z,23.43
2023-05-21T03:41:20.349Z,23.43
2023-05-21T03:42:20.430Z,23.41
2023-05-21T03:43:20.401Z,23.43
2023-05-21T03:44:20.427Z,23.41
2023-05-21T03:45:20.764Z,23.46
2023-05-21T03:46:20.509Z,23.44
2023-05-21T03:47:20.499Z,23.41
2023-05-21T03:48:20.503Z,23.44
2023-05-21T03:49:20.528Z,23.40
2023-05-21T03:50:20.750Z,23.43
2023-05-21T03:51:20.516Z,23.41
2023-05-21T03:52:20.559Z,23.43
2023-05-21T03:53:20.616Z,23.43
2023-05-21T03:54:20.602Z,23.41
2023-05-21T03:55:20.649Z,23.41
2023-05-21T03:56:20.628Z,23.44
2023-05-21T03:57:20.663Z,23.43
2023-05-21T03:58:20.731Z,23.43
2023-05-21T03:59:20.735Z,23.43
2023-05-21T04:00:21.268Z,23.41
2023-05-21T04:01:20.762Z,23.43
2023-05-21T04:02:20.857Z,23.43
2023-05-21T04:03:20.940Z,23.43
2023-05-21T04:04:20.842Z,23.46
2023-05-21T04:05:21.225Z,23.41
2023-05-21T04:06:20.822Z,23.41
2023-05-21T04:07:20.870Z,23.41
2023-05-21T04:08:20.872Z,23.43
2023-05-21T04:09:20.918Z,23.43
2023-05-21T04:10:21.274Z,23.41
2023-05-21T04:11:20.949Z,23.41
2023-05-21T04:12:20.976Z,23.41
2023-05-21T04:13:20.991Z,23.41
2023-05-21T04:14:21.022Z,23.43
2023-05-21T04:15:21.265Z,23.46
2023-05-21T04:16:21.085Z,23.43
2023-05-21T04:17:21.219Z,23.43
2023-05-21T04:18:21.128Z,23.44
2023-05-21T04:19:21.244Z,23.46
2023-05-21T04:20:21.280Z,23.44
2023-05-21T04:21:21.292Z,23.46
2023-05-21T04:22:21.317Z,23.46
2023-05-21T04:23:21.334Z,23.44
2023-05-21T04:24:21.312Z,23.46
2023-05-21T04:25:21.765Z,23.46
2023-05-21T04:26:21.425Z,23.46
2023-05-21T04:27:21.439Z,23.44
2023-05-21T04:28:21.436Z,23.46
2023-05-21T04:29:21.430Z,23.46
2023-05-21T04:30:21.762Z,23.48
2023-05-21T04:31:21.476Z,23.46
2023-05-21T04:32:21.491Z,23.47
2023-05-21T04:33:21.495Z,23.47
2023-05-21T04:34:21.508Z,23.44
2023-05-21T04:35:21.753Z,23.47
2023-05-21T04:36:21.600Z,23.47
2023-05-21T04:37:21.579Z,23.47
2023-05-21T04:38:21.595Z,23.47
2023-05-21T04:39:21.572Z,23.48
2023-05-21T04:40:21.739Z,23.48
2023-05-21T04:41:21.683Z,23.48
2023-05-21T04:42:21.820Z,23.48
2023-05-21T04:43:21.779Z,23.48
2023-05-21T04:44:21.838Z,23.50
2023-05-21T04:45:21.821Z,23.50
2023-05-21T04:46:21.860Z,23.50
2023-05-21T04:47:21.862Z,23.50
2023-05-21T04:48:21.869Z,23.51
2023-05-21T04:49:21.883Z,23.53
2023-05-21T04:50:22.260Z,23.50
2023-05-21T04:51:21.982Z,23.48
2023-05-21T04:52:21.969Z,23.51
2023-05-21T04:53:21.983Z,23.51
2023-05-21T04:54:22.005Z,23.50
2023-05-21T04:55:22.270Z,23.53
2023-05-21T04:56:22.027Z,23.56
2023-05-21T04:57:22.030Z,23.54
2023-05-21T04:58:22.008Z,23.54
2023-05-21T04:59:22.320Z,23.56
2023-05-21T05:00:22.257Z,23.56
2023-05-21T05:01:22.215Z,23.57
2023-05-21T05:02:22.167Z,23.54
2023-05-21T05:03:22.133Z,23.56
2023-05-21T05:04:22.071Z,23.56
2023-05-21T05:05:22.286Z,23.58
2023-05-21T05:06:22.036Z,23.57
2023-05-21T05:07:22.135Z,23.57
2023-05-21T05:08:22.131Z,23.57
2023-05-21T05:09:22.138Z,23.58
2023-05-21T05:10:22.124Z,23.58
2023-05-21T05:11:22.128Z,23.60
2023-05-21T05:12:22.130Z,23.60
2023-05-21T05:13:22.196Z,23.58
2023-05-21T05:14:22.302Z,23.60
2023-05-21T05:15:22.288Z,23.60
2023-05-21T05:16:22.284Z,23.62
2023-05-21T05:17:22.318Z,23.61
2023-05-21T05:18:22.269Z,23.61
2023-05-21T05:19:22.315Z,23.61
2023-05-21T05:20:22.756Z,23.61
2023-05-21T05:21:22.294Z,23.60
2023-05-21T05:22:22.265Z,23.62
2023-05-21T05:23:22.229Z,23.61
2023-05-21T05:24:22.245Z,23.62
2023-05-21T05:25:22.319Z,23.62
2023-05-21T05:26:22.359Z,23.64
2023-05-21T05:27:22.390Z,23.65
2023-05-21T05:28:22.365Z,23.61
2023-05-21T05:29:22.370Z,23.64
2023-05-21T05:30:22.374Z,23.64
2023-05-21T05:31:22.392Z,23.65
2023-05-21T05:32:22.454Z,23.66
2023-05-21T05:33:22.518Z,23.66
2023-05-21T05:34:22.626Z,23.68
2023-05-21T05:35:22.672Z,23.68
2023-05-21T05:36:22.646Z,23.65
2023-05-21T05:37:22.656Z,23.64
2023-05-21T05:38:22.624Z,23.65
2023-05-21T05:39:22.659Z,23.66
2023-05-21T05:40:22.729Z,23.66
2023-05-21T05:41:22.780Z,23.69
2023-05-21T05:42:22.726Z,23.68
2023-05-21T05:43:22.699Z,23.68
2023-05-21T05:44:22.726Z,23.65
2023-05-21T05:45:22.744Z,23.68
2023-05-21T05:46:22.792Z,23.66
2023-05-21T05:47:22.783Z,23.69
2023-05-21T05:48:22.749Z,23.66
2023-05-21T05:49:22.732Z,23.68
2023-05-21T05:50:22.722Z,23.68
2023-05-21T05:51:22.831Z,23.69
2023-05-21T05:52:22.931Z,23.68
2023-05-21T05:53:22.997Z,23.68
2023-05-21T05:54:23.025Z,23.74
2023-05-21T05:55:23.007Z,23.72
2023-05-21T05:56:23.019Z,23.74
2023-05-21T05:57:23.012Z,23.74
2023-05-21T05:58:23.004Z,23.75
2023-05-21T05:59:23.081Z,23.78
2023-05-21T06:00:23.287Z,23.78
2023-05-21T06:01:23.173Z,23.81
2023-05-21T06:02:23.331Z,23.82
2023-05-21T06:03:23.343Z,23.83
2023-05-21T06:04:23.254Z,23.86
2023-05-21T06:05:23.863Z,23.89
2023-05-21T06:06:23.397Z,23.92
2023-05-21T06:07:23.433Z,23.92
2023-05-21T06:08:23.465Z,23.95
2023-05-21T06:09:23.546Z,23.98
2023-05-21T06:10:23.811Z,23.99
2023-05-21T06:11:23.660Z,24.03
2023-05-21T06:12:23.718Z,24.05
2023-05-21T06:13:23.798Z,24.06
2023-05-21T06:14:23.836Z,24.09
2023-05-21T06:15:24.257Z,24.10
2023-05-21T06:16:23.967Z,24.13
2023-05-21T06:17:24.084Z,24.13
2023-05-21T06:18:24.063Z,24.13
2023-05-21T06:19:24.407Z,24.14
2023-05-21T06:20:24.311Z,24.13
2023-05-21T06:21:24.253Z,24.16
2023-05-21T06:22:25.639Z,24.16
2023-05-21T06:23:24.328Z,24.19
2023-05-21T06:24:24.416Z,24.19
2023-05-21T06:25:24.428Z,24.17
2023-05-21T06:26:24.518Z,24.16
2023-05-21T06:27:24.581Z,24.16
2023-05-21T06:28:24.611Z,24.16
2023-05-21T06:29:24.650Z,24.20
2023-05-21T06:30:24.768Z,24.19
2023-05-21T06:31:24.750Z,24.21
2023-05-21T06:32:24.839Z,24.21
2023-05-21T06:33:24.987Z,24.21
2023-05-21T06:34:24.902Z,24.21
2023-05-21T06:35:24.954Z,24.19
2023-05-21T06:36:25.024Z,24.21
2023-05-21T06:37:26.573Z,24.20
2023-05-21T06:38:25.115Z,24.19
2023-05-21T06:39:25.149Z,24.17
2023-05-21T06:40:25.258Z,24.17
2023-05-21T06:41:25.266Z,24.17
2023-05-21T06:42:25.350Z,24.17
2023-05-21T06:43:25.434Z,24.17
2023-05-21T06:44:25.464Z,24.16
2023-05-21T06:45:25.552Z,24.16
2023-05-21T06:46:25.619Z,24.16
2023-05-21T06:47:25.601Z,24.14
2023-05-21T06:48:25.672Z,24.14
2023-05-21T06:49:25.706Z,24.14
2023-05-21T06:50:25.820Z,24.16
2023-05-21T06:51:25.836Z,24.13
2023-05-21T06:52:25.896Z,24.16
2023-05-21T06:53:25.949Z,24.19
2023-05-21T06:54:27.068Z,24.16
2023-05-21T06:55:26.281Z,24.17
2023-05-21T06:56:26.064Z,24.16
2023-05-21T06:57:26.137Z,24.16
2023-05-21T06:58:26.179Z,24.16
2023-05-21T06:59:26.219Z,24.19
2023-05-21T07:00:26.319Z,24.17
2023-05-21T07:01:26.383Z,24.20
2023-05-21T07:02:26.458Z,24.19
2023-05-21T07:03:26.533Z,24.19
2023-05-21T07:04:26.514Z,24.23
2023-05-21T07:05:26.494Z,24.21
2023-05-21T07:06:26.588Z,24.23
2023-05-21T07:07:26.576Z,24.25
2023-05-21T07:08:26.674Z,24.24
2023-05-21T07:09:26.695Z,24.25
2023-05-21T07:10:26.834Z,24.25
2023-05-21T07:11:26.809Z,24.27
2023-05-21T07:12:26.795Z,24.25
2023-05-21T07:13:26.840Z,24.27
2023-05-21T07:14:26.868Z,24.25
2023-05-21T07:15:26.914Z,24.28
2023-05-21T07:16:26.953Z,24.27
2023-05-21T07:17:27.036Z,24.34
2023-05-21T07:18:26.995Z,24.31
2023-05-21T07:19:27.094Z,24.34
2023-05-21T07:20:27.038Z,24.35
2023-05-21T07:21:27.067Z,24.34
2023-05-21T07:22:28.300Z,24.38
2023-05-21T07:23:27.135Z,24.38
2023-05-21T07:24:27.173Z,24.41
2023-05-21T07:25:27.292Z,24.46
2023-05-21T07:26:27.225Z,24.46
2023-05-21T07:27:27.217Z,24.46
2023-05-21T07:28:27.275Z,24.51
2023-05-21T07:29:27.293Z,24.50
2023-05-21T07:30:27.334Z,24.51
2023-05-21T07:31:27.446Z,24.52
2023-05-21T07:32:27.363Z,24.55
2023-05-21T07:33:27.362Z,24.55
2023-05-21T07:34:27.361Z,24.58
2023-05-21T07:35:27.827Z,24.59
2023-05-21T07:36:27.394Z,24.59
2023-05-21T07:37:27.452Z,24.58
2023-05-21T07:38:27.452Z,24.62
2023-05-21T07:39:27.545Z,24.62
2023-05-21T07:40:27.503Z,24.61
2023-05-21T07:41:27.824Z,24.64
2023-05-21T07:42:27.547Z,24.65
2023-05-21T07:43:27.536Z,24.64
2023-05-21T07:44:27.546Z,24.61
2023-05-21T07:45:27.609Z,24.62
2023-05-21T07:46:27.683Z,24.64
2023-05-21T07:47:27.662Z,24.65
2023-05-21T07:48:27.687Z,24.66
2023-05-21T07:49:27.705Z,24.71
2023-05-21T07:50:28.357Z,24.69
2023-05-21T07:51:27.705Z,24.68
2023-05-21T07:52:27.779Z,24.69
2023-05-21T07:53:27.763Z,24.69
2023-05-21T07:54:27.781Z,24.72
2023-05-21T07:55:27.840Z,24.73
2023-05-21T07:56:27.836Z,24.72
2023-05-21T07:57:27.857Z,24.75
2023-05-21T07:58:27.891Z,24.75
2023-05-21T07:59:27.899Z,24.75
2023-05-21T08:00:27.898Z,24.76
2023-05-21T08:01:27.898Z,24.75
2023-05-21T08:02:27.982Z,24.78
2023-05-21T08:03:28.103Z,24.75
2023-05-21T08:04:28.009Z,24.76
2023-05-21T08:05:27.980Z,24.75
2023-05-21T08:06:27.977Z,24.76
2023-05-21T08:07:28.006Z,24.75
2023-05-21T08:08:28.003Z,24.75
2023-05-21T08:09:28.031Z,24.73
2023-05-21T08:10:28.074Z,24.73
2023-05-21T08:11:28.056Z,24.73
2023-05-21T08:12:28.098Z,24.72
2023-05-21T08:13:28.114Z,24.73
2023-05-21T08:14:28.099Z,24.76
2023-05-21T08:15:28.112Z,24.72
2023-05-21T08:16:28.376Z,24.75
2023-05-21T08:17:28.203Z,24.73
2023-05-21T08:18:28.175Z,24.76
2023-05-21T08:19:28.302Z,24.78
2023-05-21T08:20:28.208Z,24.79
2023-05-21T08:21:28.360Z,24.80
2023-05-21T08:22:28.209Z,24.80
2023-05-21T08:23:28.250Z,24.85
2023-05-21T08:24:28.375Z,24.83
2023-05-21T08:25:28.248Z,24.87
2023-05-21T08:26:28.347Z,24.87
2023-05-21T08:27:28.269Z,24.89
2023-05-21T08:28:28.262Z,24.90
2023-05-21T08:29:28.258Z,24.89
2023-05-21T08:30:28.333Z,24.90
2023-05-21T08:31:28.385Z,24.91
2023-05-21T08:32:28.295Z,24.96
2023-05-21T08:33:28.289Z,24.94
2023-05-21T08:34:28.320Z,24.94
2023-05-21T08:35:28.292Z,24.94
2023-05-21T08:36:28.826Z,24.97
2023-05-21T08:37:28.319Z,24.94
2023-05-21T08:38:30.270Z,24.99
2023-05-21T08:39:28.334Z,24.99
2023-05-21T08:40:28.321Z,24.99
2023-05-21T08:41:28.319Z,24.97
2023-05-21T08:42:36.269Z,24.99
2023-05-21T08:43:29.351Z,24.99
2023-05-21T08:44:28.320Z,25.00
2023-05-21T08:45:28.302Z,25.02
2023-05-21T08:46:28.371Z,25.02
2023-05-21T08:47:28.317Z,25.02
2023-05-21T08:48:28.302Z,25.00
2023-05-21T08:49:28.284Z,25.00
2023-05-21T08:50:28.316Z,25.00
2023-05-21T08:51:28.264Z,25.02
2023-05-21T08:52:28.280Z,25.02
2023-05-21T08:53:29.216Z,25.02
2023-05-21T08:54:28.223Z,25.02
2023-05-21T08:55:28.227Z,25.03
2023-05-21T08:56:28.351Z,25.02
2023-05-21T08:57:28.227Z,25.00
2023-05-21T08:58:28.203Z,25.02
2023-05-21T08:59:28.220Z,25.02
2023-05-21T09:00:28.221Z,25.03
2023-05-21T09:01:28.426Z,25.02
2023-05-21T09:02:28.272Z,25.00
2023-05-21T09:03:28.213Z,25.00
2023-05-21T09:04:28.196Z,25.03
2023-05-21T09:05:28.206Z,25.00
2023-05-21T09:06:28.346Z,25.00
2023-05-21T09:07:28.168Z,25.00
2023-05-21T09:08:28.160Z,25.02
2023-05-21T09:09:28.169Z,24.99
2023-05-21T09:10:28.159Z,24.99
2023-05-21T09:11:28.170Z,25.02
2023-05-21T09:12:28.139Z,25.00
2023-05-21T09:13:28.159Z,25.00
2023-05-21T09:14:28.116Z,25.02
2023-05-21T09:15:28.120Z,24.99
2023-05-21T09:16:28.122Z,24.99
2023-05-21T09:17:28.142Z,25.00
2023-05-21T09:18:28.109Z,24.99
2023-05-21T09:19:28.130Z,24.99
2023-05-21T09:20:28.106Z,24.99
2023-05-21T09:21:28.071Z,25.02
2023-05-21T09:22:28.086Z,25.00
2023-05-21T09:23:28.074Z,25.02
2023-05-21T09:24:28.040Z,25.02
2023-05-21T09:25:28.132Z,25.00
2023-05-21T09:26:28.411Z,24.99
2023-05-21T09:27:28.049Z,25.00
2023-05-21T09:28:28.007Z,25.00
2023-05-21T09:29:28.020Z,25.02
2023-05-21T09:30:30.566Z,25.02
2023-05-21T09:31:28.062Z,25.02
2023-05-21T09:32:27.986Z,24.99
2023-05-21T09:33:27.999Z,25.02
2023-05-21T09:34:28.002Z,25.00
2023-05-21T09:35:27.999Z,25.03
2023-05-21T09:36:27.983Z,24.99
2023-05-21T09:37:28.061Z,25.02
2023-05-21T09:38:27.977Z,24.99
2023-05-21T09:39:28.016Z,24.99
2023-05-21T09:40:28.003Z,25.03
2023-05-21T09:41:28.406Z,25.00
2023-05-21T09:42:27.936Z,25.02
2023-05-21T09:43:27.907Z,25.00
2023-05-21T09:44:27.910Z,25.02
2023-05-21T09:45:27.919Z,25.03
2023-05-21T09:46:28.000Z,25.03
2023-05-21T09:47:27.956Z,24.99
2023-05-21T09:48:27.911Z,25.04
2023-05-21T09:49:28.035Z,25.00
2023-05-21T09:50:27.940Z,25.00
2023-05-21T09:51:27.885Z,25.02
2023-05-21T09:52:27.887Z,25.00
2023-05-21T09:53:27.875Z,25.00
2023-05-21T09:54:27.876Z,25.00
2023-05-21T09:55:27.809Z,25.02
2023-05-21T09:56:27.832Z,25.00
2023-05-21T09:57:27.867Z,24.99
2023-05-21T09:58:27.854Z,24.96
2023-05-21T09:59:27.809Z,24.96
2023-05-21T10:00:27.827Z,24.97
2023-05-21T10:01:27.877Z,24.97
2023-05-21T10:02:27.800Z,24.94
2023-05-21T10:03:27.775Z,24.96
2023-05-21T10:04:27.879Z,24.96
2023-05-21T10:05:27.797Z,24.91
2023-05-21T10:06:27.785Z,24.91
2023-05-21T10:07:27.778Z,24.93
2023-05-21T10:08:27.717Z,24.91
2023-05-21T10:09:27.734Z,24.87
2023-05-21T10:10:27.710Z,24.87
2023-05-21T10:11:27.748Z,24.89
2023-05-21T10:12:27.760Z,24.87
2023-05-21T10:13:27.685Z,24.85
2023-05-21T10:14:27.696Z,24.86
2023-05-21T10:15:27.692Z,24.86
2023-05-21T10:16:27.757Z,24.86
2023-05-21T10:17:27.674Z,24.86
2023-05-21T10:18:27.666Z,24.85
2023-05-21T10:19:27.844Z,24.86
2023-05-21T10:20:27.704Z,24.86
2023-05-21T10:21:27.862Z,24.85
2023-05-21T10:22:27.674Z,24.87
2023-05-21T10:23:27.642Z,24.89
2023-05-21T10:24:27.651Z,24.86
2023-05-21T10:25:27.623Z,24.86
2023-05-21T10:26:27.643Z,24.83
2023-05-21T10:27:28.444Z,24.83
2023-05-21T10:28:27.611Z,24.85
2023-05-21T10:29:27.608Z,24.85
2023-05-21T10:30:27.576Z,24.85
2023-05-21T10:31:27.630Z,24.85
2023-05-21T10:32:27.709Z,24.85
2023-05-21T10:33:27.588Z,24.86
2023-05-21T10:34:27.577Z,24.87
2023-05-21T10:35:27.603Z,24.87
2023-05-21T10:36:27.872Z,24.86
2023-05-21T10:37:27.521Z,24.87
2023-05-21T10:38:27.578Z,24.87
2023-05-21T10:39:27.515Z,24.86
2023-05-21T10:40:27.516Z,24.87
2023-05-21T10:42:27.673Z,24.87
2023-05-21T10:43:27.531Z,24.86
2023-05-21T10:44:27.513Z,24.87
2023-05-21T10:45:27.537Z,24.87
2023-05-21T10:46:27.494Z,24.87
2023-05-21T10:47:27.459Z,24.89
2023-05-21T10:48:27.486Z,24.86
2023-05-21T10:49:27.470Z,24.86
2023-05-21T10:50:27.498Z,24.85
2023-05-21T10:51:27.522Z,24.85
2023-05-21T10:52:27.521Z,24.85
2023-05-21T10:53:27.514Z,24.83
2023-05-21T10:54:27.489Z,24.83
2023-05-21T10:55:27.539Z,24.83
2023-05-21T10:56:27.509Z,24.83
2023-05-21T10:57:27.535Z,24.79
2023-05-21T10:58:29.321Z,24.82
2023-05-21T10:59:27.587Z,24.80
2023-05-21T11:00:27.566Z,24.80
2023-05-21T11:01:27.629Z,24.80
2023-05-21T11:02:27.652Z,24.82
2023-05-21T11:03:27.696Z,24.82
2023-05-21T11:04:27.670Z,24.80
2023-05-21T11:05:27.605Z,24.82
2023-05-21T11:06:27.600Z,24.80
2023-05-21T11:07:27.579Z,24.80
2023-05-21T11:08:27.586Z,24.80
2023-05-21T11:09:27.594Z,24.80
2023-05-21T11:10:27.606Z,24.82
2023-05-21T11:11:27.617Z,24.82
2023-05-21T11:12:27.602Z,24.82
2023-05-21T11:13:27.612Z,24.85
2023-05-21T11:14:27.588Z,24.85
2023-05-21T11:15:27.597Z,24.83
2023-05-21T11:16:27.631Z,24.82
2023-05-21T11:17:27.685Z,24.83
2023-05-21T11:18:27.647Z,24.83
2023-05-21T11:19:27.707Z,24.83
2023-05-21T11:20:27.618Z,24.85
2023-05-21T11:21:27.908Z,24.85
2023-05-21T11:22:27.624Z,24.85
2023-05-21T11:23:27.627Z,24.83
2023-05-21T11:24:27.638Z,24.86
2023-05-21T11:25:27.654Z,24.85
2023-05-21T11:26:27.927Z,24.83
2023-05-21T11:27:27.647Z,24.85
2023-05-21T11:28:27.636Z,24.86
2023-05-21T11:29:27.623Z,24.85
2023-05-21T11:30:27.627Z,24.87
2023-05-21T11:31:28.040Z,24.85
2023-05-21T11:32:27.688Z,24.85
2023-05-21T11:33:27.667Z,24.85
2023-05-21T11:34:27.666Z,24.85
2023-05-21T11:35:27.653Z,24.86
2023-05-21T11:36:27.923Z,24.86
2023-05-21T11:37:27.694Z,24.86
2023-05-21T11:38:27.689Z,24.86
2023-05-21T11:39:27.711Z,24.89
2023-05-21T11:40:27.711Z,24.86
2023-05-21T11:41:27.735Z,24.85
2023-05-21T11:42:27.739Z,24.85
2023-05-21T11:43:27.726Z,24.87
2023-05-21T11:44:27.693Z,24.86
2023-05-21T11:45:27.746Z,24.83
2023-05-21T11:46:27.765Z,24.85
2023-05-21T11:47:27.725Z,24.83
2023-05-21T11:48:28.504Z,24.85
2023-05-21T11:49:27.685Z,24.85
2023-05-21T11:50:27.719Z,24.83
2023-05-21T11:51:27.712Z,24.83
2023-05-21T11:52:27.692Z,24.83
2023-05-21T11:53:27.669Z,24.86
2023-05-21T11:54:27.718Z,24.83
2023-05-21T11:55:27.713Z,24.86
2023-05-21T11:56:27.684Z,24.85
2023-05-21T11:57:27.677Z,24.87
2023-05-21T11:58:27.728Z,24.87
2023-05-21T11:59:27.732Z,24.89
2023-05-21T12:00:27.755Z,24.87
2023-05-21T12:01:27.735Z,24.87
2023-05-21T12:02:27.800Z,24.85
2023-05-21T12:03:27.827Z,24.86
2023-05-21T12:04:27.729Z,24.85
2023-05-21T12:05:27.723Z,24.87
2023-05-21T12:06:27.866Z,24.87
2023-05-21T12:07:27.753Z,24.86
2023-05-21T12:08:27.724Z,24.85
2023-05-21T12:09:27.709Z,24.85
2023-05-21T12:10:27.740Z,24.87
2023-05-21T12:11:27.744Z,24.86
2023-05-21T12:12:35.345Z,24.87
2023-05-21T12:13:28.701Z,24.89
2023-05-21T12:14:27.751Z,24.87
2023-05-21T12:15:27.777Z,24.89
2023-05-21T12:16:27.749Z,24.87
2023-05-21T12:17:27.706Z,24.90
2023-05-21T12:18:27.676Z,24.91
2023-05-21T12:19:27.741Z,24.91
2023-05-21T12:20:27.677Z,24.94
2023-05-21T12:21:27.675Z,24.93
2023-05-21T12:22:27.637Z,24.94
2023-05-21T12:23:27.632Z,24.94
2023-05-21T12:24:27.708Z,24.99
2023-05-21T12:25:27.654Z,24.99
2023-05-21T12:26:27.657Z,25.00
2023-05-21T12:27:27.637Z,25.02
2023-05-21T12:28:27.608Z,25.02
2023-05-21T12:29:27.646Z,25.04
2023-05-21T12:30:27.671Z,25.04
2023-05-21T12:31:27.659Z,25.06
2023-05-21T12:32:27.626Z,25.06
2023-05-21T12:33:27.608Z,25.06
2023-05-21T12:34:27.590Z,25.07
2023-05-21T12:35:27.644Z,25.10
2023-05-21T12:36:28.425Z,25.11
2023-05-21T12:37:27.578Z,25.10
2023-05-21T12:38:27.551Z,25.11
2023-05-21T12:39:27.578Z,25.13
2023-05-21T12:40:27.544Z,25.13
2023-05-21T12:41:27.535Z,25.17
2023-05-21T12:42:27.518Z,25.15
2023-05-21T12:43:27.519Z,25.15
2023-05-21T12:44:27.488Z,25.18
2023-05-21T12:45:27.498Z,25.17
2023-05-21T12:46:27.592Z,25.20
2023-05-21T12:47:27.586Z,25.21
2023-05-21T12:48:27.507Z,25.22
2023-05-21T12:49:27.497Z,25.22
2023-05-21T12:50:27.494Z,25.25
2023-05-21T12:51:27.468Z,25.25
2023-05-21T12:52:27.499Z,25.27
2023-05-21T12:53:27.555Z,25.30